Time;durP1;ratioP1;P1;durP2;ratioP2;P2;SDS_P1;SDS_P2;PMS_P1;PMS_P2;Temp;Humidity;BMP_temperature;BMP_pressure;BME280_temperature;BME280_humidity;BME280_pressure;Samples;Min_cycle;Max_cycle;Signal;HPM_P1;HPM_P2
2023/01/26 00:01:24;;;;;;;4.15;2.00;;;5.20;99.90;;;;;;4931087;29;20047;-87
2023/01/26 00:03:51;;;;;;;3.75;2.13;;;5.20;99.90;;;;;;4948078;29;20047;-87
2023/01/26 00:06:19;;;;;;;4.13;2.08;;;5.10;99.90;;;;;;4946577;29;20082;-88
2023/01/26 00:08:50;;;;;;;3.25;1.40;;;5.10;99.90;;;;;;4947752;29;20067;-88
2023/01/26 00:11:18;;;;;;;4.28;1.58;;;5.10;99.90;;;;;;4964631;28;20139;-87
2023/01/26 00:13:45;;;;;;;2.53;1.50;;;5.00;99.90;;;;;;4980549;28;20138;-88
2023/01/26 00:16:13;;;;;;;5.68;1.80;;;5.00;99.90;;;;;;4964584;28;20077;-88
2023/01/26 00:18:40;;;;;;;3.08;1.30;;;4.90;99.90;;;;;;4948495;29;20077;-87
2023/01/26 00:21:08;;;;;;;5.60;1.55;;;4.90;99.90;;;;;;4932418;29;20106;-87
2023/01/26 00:23:34;;;;;;;4.00;1.80;;;4.90;99.90;;;;;;4931558;29;20083;-87
2023/01/26 00:26:02;;;;;;;4.43;1.38;;;5.00;99.90;;;;;;4948224;29;20513;-87
2023/01/26 00:28:28;;;;;;;4.97;1.35;;;5.00;99.90;;;;;;4932693;29;20079;-86
2023/01/26 00:31:11;;;;;;;5.20;1.40;;;5.00;99.90;;;;;;4932763;29;20086;-85
2023/01/26 00:33:38;;;;;;;5.50;1.53;;;5.00;99.90;;;;;;4948794;29;20051;-86
2023/01/26 00:36:05;;;;;;;3.05;1.08;;;5.00;99.90;;;;;;4980131;28;20392;-87
2023/01/26 00:38:32;;;;;;;4.55;1.30;;;5.00;99.90;;;;;;4948154;29;20138;-87
2023/01/26 00:40:59;;;;;;;3.28;1.05;;;4.90;99.90;;;;;;4946855;29;20077;-89
2023/01/26 00:43:26;;;;;;;4.03;1.30;;;4.90;99.90;;;;;;4948702;28;20066;-88
2023/01/26 00:45:53;;;;;;;3.33;1.23;;;4.90;99.90;;;;;;4949348;29;20407;-88
2023/01/26 00:48:19;;;;;;;4.68;1.60;;;4.90;99.90;;;;;;4949977;28;20102;-88
2023/01/26 00:50:50;;;;;;;3.05;1.27;;;4.90;99.90;;;;;;4940649;29;20496;-87
2023/01/26 00:53:17;;;;;;;5.13;1.52;;;4.90;99.90;;;;;;4948197;29;20129;-87
2023/01/26 00:55:44;;;;;;;3.17;1.48;;;4.90;99.90;;;;;;4932612;29;20050;-88
2023/01/26 00:58:11;;;;;;;2.70;1.30;;;4.90;99.90;;;;;;4948593;29;20070;-88
2023/01/26 01:00:38;;;;;;;3.53;1.65;;;4.90;99.90;;;;;;4947963;29;20055;-87
2023/01/26 01:03:05;;;;;;;4.68;2.05;;;4.80;99.90;;;;;;4932509;29;20082;-88
2023/01/26 01:05:32;;;;;;;7.20;1.70;;;4.80;99.90;;;;;;4979920;28;20063;-86
2023/01/26 01:07:59;;;;;;;3.63;1.80;;;4.80;99.90;;;;;;4948986;28;20075;-87
2023/01/26 01:10:26;;;;;;;3.60;1.48;;;4.80;99.90;;;;;;4932059;29;20059;-87
2023/01/26 01:12:53;;;;;;;3.38;2.08;;;4.70;99.90;;;;;;4947346;29;20043;-88
2023/01/26 01:15:20;;;;;;;3.90;1.60;;;4.70;99.90;;;;;;4932897;29;20055;-88
2023/01/26 01:17:47;;;;;;;4.22;1.88;;;4.60;99.90;;;;;;4964501;28;20131;-87
2023/01/26 01:20:14;;;;;;;4.10;1.98;;;4.60;99.90;;;;;;4932276;29;20082;-88
2023/01/26 01:22:41;;;;;;;6.10;2.05;;;4.60;99.90;;;;;;4963444;28;20062;-87
2023/01/26 01:25:08;;;;;;;3.42;1.80;;;4.50;99.90;;;;;;4923483;29;20051;-87
2023/01/26 01:27:35;;;;;;;6.47;2.40;;;4.50;99.90;;;;;;4915424;29;20055;-87
2023/01/26 01:30:06;;;;;;;4.60;2.03;;;4.50;99.90;;;;;;4947412;29;20592;-87
2023/01/26 01:32:38;;;;;;;9.32;2.55;;;4.50;99.90;;;;;;4962583;28;20051;-87
2023/01/26 01:35:06;;;;;;;4.15;1.98;;;4.50;99.90;;;;;;4974831;28;20098;-87
2023/01/26 01:37:32;;;;;;;5.90;2.00;;;4.50;99.90;;;;;;4946791;28;20141;-86
2023/01/26 01:39:59;;;;;;;5.28;2.25;;;4.50;99.90;;;;;;4946585;29;20051;-87
2023/01/26 01:42:26;;;;;;;4.68;2.15;;;4.40;99.90;;;;;;4930701;29;20141;-88
2023/01/26 01:45:38;;;;;;;3.90;2.67;;;4.40;99.90;;;;;;4930784;29;20471;-87
2023/01/26 01:48:09;;;;;;;3.33;2.08;;;4.40;99.90;;;;;;4947228;29;20118;-86
2023/01/26 01:50:37;;;;;;;4.88;1.90;;;4.30;99.90;;;;;;4949334;28;20559;-87
2023/01/26 01:53:05;;;;;;;4.60;2.00;;;4.30;99.90;;;;;;4931654;29;20114;-88
2023/01/26 01:55:32;;;;;;;5.28;2.20;;;4.30;99.90;;;;;;4947187;29;20410;-86
2023/01/26 01:58:00;;;;;;;4.68;2.20;;;4.30;99.90;;;;;;4978942;28;20118;-86
2023/01/26 02:00:27;;;;;;;6.63;2.40;;;4.30;99.90;;;;;;4980152;28;20066;-87
2023/01/26 02:03:10;;;;;;;3.67;2.38;;;4.30;99.90;;;;;;4963855;28;20474;-87
2023/01/26 02:06:01;;;;;;;5.68;2.42;;;4.30;99.90;;;;;;4939539;29;20058;-87
2023/01/26 02:08:33;;;;;;;4.53;2.30;;;4.20;99.90;;;;;;4949501;28;20074;-87
2023/01/26 02:11:09;;;;;;;7.18;2.38;;;4.20;99.90;;;;;;4979042;28;20453;-87
2023/01/26 02:13:37;;;;;;;6.20;2.42;;;4.20;99.90;;;;;;4951176;28;20061;-87
2023/01/26 02:16:04;;;;;;;4.40;2.53;;;4.30;99.90;;;;;;4946955;28;20487;-87
2023/01/26 02:18:30;;;;;;;5.43;2.42;;;4.30;99.90;;;;;;4946212;29;20087;-87
2023/01/26 02:20:59;;;;;;;3.65;2.22;;;4.20;99.90;;;;;;4979067;28;20073;-87
2023/01/26 02:23:52;;;;;;;7.25;2.85;;;4.20;99.90;;;;;;4957181;28;20059;-86
2023/01/26 02:26:21;;;;;;;4.83;2.50;;;4.20;99.90;;;;;;4948038;28;20051;-86
2023/01/26 02:28:48;;;;;;;5.85;2.42;;;4.30;99.90;;;;;;4966705;28;20476;-87
2023/01/26 02:31:15;;;;;;;5.63;2.25;;;4.20;99.90;;;;;;4961326;28;20043;-86
2023/01/26 02:33:42;;;;;;;7.30;2.70;;;4.30;99.90;;;;;;4936718;29;20067;-86
2023/01/26 02:36:25;;;;;;;7.47;2.67;;;4.30;99.90;;;;;;4951899;29;20082;-86
2023/01/26 02:39:29;;;;;;;5.43;2.63;;;4.20;99.90;;;;;;4983973;28;20055;-84
2023/01/26 02:44:41;;;;;;;7.10;3.70;;;4.30;99.90;;;;;;4938638;29;20130;-86
2023/01/26 02:47:13;;;;;;;5.75;2.90;;;4.20;99.90;;;;;;4984243;28;20089;-87
2023/01/26 02:49:46;;;;;;;5.50;3.00;;;4.20;99.90;;;;;;4952364;29;20059;-86
2023/01/26 02:52:17;;;;;;;4.10;2.60;;;4.10;99.90;;;;;;4928869;28;20134;-88
2023/01/26 02:57:29;;;;;;;5.15;2.53;;;4.00;99.90;;;;;;4932699;29;20055;-87
2023/01/26 02:59:56;;;;;;;4.18;3.03;;;4.00;99.90;;;;;;4948349;29;20059;-87
2023/01/26 03:02:23;;;;;;;3.90;2.58;;;3.90;99.90;;;;;;4976551;28;20419;-86
2023/01/26 03:04:50;;;;;;;4.30;2.30;;;3.80;99.90;;;;;;4952274;29;20055;-88
2023/01/26 03:07:16;;;;;;;3.85;2.42;;;3.80;99.90;;;;;;4920539;29;20146;-87
2023/01/26 03:09:43;;;;;;;4.55;2.58;;;3.70;99.90;;;;;;4936238;29;20138;-87
2023/01/26 03:12:10;;;;;;;6.53;3.85;;;3.70;99.90;;;;;;4936921;29;20388;-87
2023/01/26 03:14:37;;;;;;;5.18;2.63;;;3.60;99.90;;;;;;4937174;29;20475;-88
2023/01/26 03:17:04;;;;;;;6.75;2.97;;;3.60;99.90;;;;;;4936395;29;20047;-88
2023/01/26 03:28:03;;;;;;;4.45;2.53;;;3.50;99.90;;;;;;4952411;29;20190;-87
2023/01/26 03:30:30;;;;;;;3.72;2.30;;;3.50;99.90;;;;;;4952551;28;20051;-87
2023/01/26 03:32:58;;;;;;;5.55;2.95;;;3.40;99.90;;;;;;4951524;29;20134;-87
2023/01/26 03:35:24;;;;;;;5.05;3.10;;;3.40;99.90;;;;;;4952289;28;20054;-87
2023/01/26 03:37:53;;;;;;;4.22;2.30;;;3.30;99.90;;;;;;4951128;29;20079;-86
2023/01/26 03:56:53;;;;;;;4.60;2.78;;;3.20;99.90;;;;;;4951237;29;20102;-87
2023/01/26 03:59:36;;;;;;;4.20;2.92;;;3.20;99.90;;;;;;4967210;28;20145;-86
2023/01/26 04:10:21;;;;;;;4.78;2.60;;;3.10;99.90;;;;;;4977626;28;20089;-86
2023/01/26 04:23:57;;;;;;;2.97;2.20;;;3.00;99.90;;;;;;4958841;28;20098;-87
2023/01/26 04:26:33;;;;;;;4.05;2.95;;;3.00;99.90;;;;;;4981695;28;20088;-87
2023/01/26 04:29:08;;;;;;;3.80;2.33;;;3.00;99.90;;;;;;4965660;28;20522;-86
2023/01/26 04:31:35;;;;;;;4.45;2.50;;;3.00;99.90;;;;;;4949876;28;20138;-87
2023/01/26 04:34:02;;;;;;;5.75;2.40;;;3.00;99.90;;;;;;4966105;28;20117;-86
2023/01/26 04:36:29;;;;;;;2.78;1.98;;;3.00;99.90;;;;;;4965144;28;20130;-86
2023/01/26 04:38:56;;;;;;;5.53;3.05;;;3.00;99.90;;;;;;4950246;29;20061;-86
2023/01/26 04:41:23;;;;;;;4.70;2.20;;;2.90;99.90;;;;;;4949323;28;20527;-86
2023/01/26 04:43:50;;;;;;;4.70;2.08;;;3.00;99.90;;;;;;4934004;29;20130;-86
2023/01/26 04:46:16;;;;;;;3.97;2.13;;;2.90;99.90;;;;;;4950470;29;20089;-86
2023/01/26 04:48:43;;;;;;;3.97;2.25;;;2.90;99.90;;;;;;4981751;28;20046;-86
2023/01/26 04:51:14;;;;;;;3.50;2.00;;;2.90;99.90;;;;;;4950889;29;20117;-86
2023/01/26 04:53:41;;;;;;;4.80;2.55;;;3.00;99.90;;;;;;4933730;29;20059;-86
2023/01/26 04:56:21;;;;;;;4.95;2.28;;;3.00;99.90;;;;;;4918173;29;20063;-85
2023/01/26 04:58:48;;;;;;;4.35;2.30;;;3.00;99.90;;;;;;4963916;28;20065;-86
2023/01/26 05:01:15;;;;;;;8.15;2.63;;;3.00;99.90;;;;;;4949901;29;20090;-86
2023/01/26 05:03:42;;;;;;;7.20;2.33;;;3.10;99.90;;;;;;4949819;29;20051;-86
2023/01/26 05:06:08;;;;;;;4.38;2.10;;;3.10;99.90;;;;;;4933426;29;20130;-86
2023/01/26 05:08:36;;;;;;;3.63;2.20;;;3.10;99.90;;;;;;4949053;29;20422;-86
2023/01/26 05:11:03;;;;;;;3.97;1.95;;;3.20;99.90;;;;;;4933191;29;20047;-85
2023/01/26 05:13:29;;;;;;;4.20;1.65;;;3.20;99.90;;;;;;4964879;28;20090;-86
2023/01/26 05:15:56;;;;;;;4.20;2.20;;;3.20;99.90;;;;;;4933911;29;20054;-86
2023/01/26 05:18:23;;;;;;;3.63;1.90;;;3.30;99.90;;;;;;4950627;28;20502;-86
2023/01/26 05:20:50;;;;;;;5.95;2.20;;;3.30;99.90;;;;;;4948957;29;20137;-86
2023/01/26 05:23:16;;;;;;;4.43;1.83;;;3.30;99.90;;;;;;4981188;28;20047;-86
2023/01/26 05:25:43;;;;;;;3.58;2.00;;;3.30;99.90;;;;;;4950530;28;20070;-86
2023/01/26 05:28:10;;;;;;;3.17;1.67;;;3.30;99.90;;;;;;4964631;28;20143;-85
2023/01/26 05:30:36;;;;;;;2.88;1.50;;;3.40;99.90;;;;;;4981211;28;20055;-86
2023/01/26 05:33:04;;;;;;;3.92;1.50;;;3.40;99.90;;;;;;4980907;28;20047;-85
2023/01/26 05:35:31;;;;;;;6.25;2.72;;;3.50;99.90;;;;;;4978937;28;20055;-83
2023/01/26 05:37:58;;;;;;;4.30;1.95;;;3.50;99.90;;;;;;4940752;28;20043;-84
2023/01/26 05:40:25;;;;;;;3.25;1.60;;;3.60;99.90;;;;;;4978475;28;20166;-85
2023/01/26 05:42:52;;;;;;;3.20;1.63;;;3.60;99.90;;;;;;4948244;28;20231;-83
2023/01/26 05:45:19;;;;;;;4.78;1.80;;;3.70;99.90;;;;;;4962968;28;20729;-84
2023/01/26 05:47:47;;;;;;;5.80;1.70;;;3.80;99.90;;;;;;4953926;28;20047;-83
2023/01/26 05:50:14;;;;;;;4.30;2.05;;;3.80;99.90;;;;;;4962273;28;20111;-86
2023/01/26 05:52:42;;;;;;;5.47;1.75;;;3.80;99.90;;;;;;4960298;28;20055;-86
2023/01/26 05:55:09;;;;;;;4.35;1.48;;;3.90;99.90;;;;;;4963948;28;20047;-85
2023/01/26 05:57:35;;;;;;;5.65;1.70;;;3.90;99.90;;;;;;4949500;28;20057;-84
2023/01/26 06:00:04;;;;;;;6.68;1.55;;;3.90;99.90;;;;;;4964245;28;20138;-86
2023/01/26 06:02:31;;;;;;;4.57;2.42;;;4.00;99.90;;;;;;4961319;28;20056;-84
2023/01/26 06:04:58;;;;;;;5.07;2.00;;;4.00;99.90;;;;;;4975914;28;20135;-85
2023/01/26 06:07:25;;;;;;;5.10;2.03;;;4.00;99.90;;;;;;4962160;28;20066;-82
2023/01/26 06:09:52;;;;;;;3.17;1.85;;;4.10;99.90;;;;;;4946604;29;20555;-84
2023/01/26 06:12:19;;;;;;;4.95;2.30;;;4.10;99.90;;;;;;4946819;29;20051;-87
2023/01/26 06:14:46;;;;;;;3.30;1.50;;;4.20;99.90;;;;;;4980566;28;20047;-86
2023/01/26 06:17:14;;;;;;;2.60;1.60;;;4.20;99.90;;;;;;4982239;28;20483;-87
2023/01/26 06:19:41;;;;;;;4.35;2.10;;;4.20;99.90;;;;;;4965175;28;20491;-86
2023/01/26 06:22:12;;;;;;;7.53;1.98;;;4.20;99.90;;;;;;4945158;28;20094;-88
2023/01/26 06:24:38;;;;;;;4.10;1.67;;;4.20;99.90;;;;;;4930814;29;20059;-86
2023/01/26 06:27:07;;;;;;;2.85;1.58;;;4.20;99.90;;;;;;4954462;28;20477;-88
2023/01/26 06:29:34;;;;;;;3.28;1.25;;;4.20;99.90;;;;;;4957047;28;20054;-88
2023/01/26 06:32:01;;;;;;;3.03;1.50;;;4.30;99.90;;;;;;4965528;28;20058;-85
2023/01/26 06:34:28;;;;;;;5.50;1.90;;;4.30;99.90;;;;;;4980085;28;20538;-85
2023/01/26 06:36:55;;;;;;;6.00;1.95;;;4.30;99.90;;;;;;4949025;29;20070;-87
2023/01/26 06:39:22;;;;;;;3.47;1.60;;;4.30;99.90;;;;;;4965214;28;20051;-88
2023/01/26 06:41:49;;;;;;;2.25;1.20;;;4.40;99.90;;;;;;4946053;29;20138;-87
2023/01/26 06:44:16;;;;;;;5.53;1.30;;;4.40;99.90;;;;;;4944138;29;20110;-85
2023/01/26 06:46:42;;;;;;;5.45;2.13;;;4.40;99.90;;;;;;4963551;28;20051;-86
2023/01/26 06:49:09;;;;;;;4.63;1.63;;;4.40;99.90;;;;;;4961464;28;20109;-86
2023/01/26 06:52:05;;;;;;;3.88;1.48;;;4.40;99.90;;;;;;4948152;28;20542;-89
2023/01/26 06:54:32;;;;;;;4.72;2.00;;;4.50;99.90;;;;;;4947321;28;20079;-86
2023/01/26 06:56:59;;;;;;;2.10;1.30;;;4.50;99.90;;;;;;4978917;28;20047;-92
2023/01/26 06:59:25;;;;;;;3.75;1.90;;;4.50;99.90;;;;;;4954239;28;20141;-92
2023/01/26 07:01:52;;;;;;;5.30;1.92;;;4.50;99.90;;;;;;4979636;28;20055;-92
2023/01/26 07:04:19;;;;;;;3.55;1.45;;;4.50;99.90;;;;;;4947622;28;20050;-91
2023/01/26 07:06:46;;;;;;;2.65;1.15;;;4.50;99.90;;;;;;4948940;28;20051;-93
2023/01/26 07:09:13;;;;;;;6.63;2.70;;;4.50;99.90;;;;;;4943913;28;20079;-91
2023/01/26 07:11:40;;;;;;;2.38;1.40;;;4.50;99.90;;;;;;4961854;28;20419;-89
2023/01/26 07:14:07;;;;;;;4.63;1.70;;;4.50;99.90;;;;;;4957156;28;20059;-92
2023/01/26 07:16:34;;;;;;;3.90;1.50;;;4.50;99.90;;;;;;4964220;28;20130;-92
2023/01/26 07:19:01;;;;;;;4.65;1.70;;;4.50;99.90;;;;;;4965013;28;20066;-91
2023/01/26 07:21:28;;;;;;;2.00;1.10;;;4.50;99.90;;;;;;4948435;28;20058;-91
2023/01/26 07:23:55;;;;;;;2.53;1.17;;;4.50;99.90;;;;;;4930007;29;20051;-91
2023/01/26 07:26:23;;;;;;;4.18;1.40;;;4.50;99.90;;;;;;4947293;28;20094;-91
2023/01/26 07:28:50;;;;;;;3.45;1.80;;;4.50;99.90;;;;;;4943756;28;20502;-92
2023/01/26 07:31:17;;;;;;;5.35;1.83;;;4.50;99.90;;;;;;4958328;28;20430;-85
2023/01/26 07:33:44;;;;;;;3.75;1.48;;;4.50;99.90;;;;;;4944859;28;20052;-91
2023/01/26 07:36:10;;;;;;;3.72;1.75;;;4.50;99.90;;;;;;4977483;28;20051;-91
2023/01/26 07:38:37;;;;;;;4.03;1.38;;;4.60;99.90;;;;;;4977852;28;20047;-90
2023/01/26 07:41:08;;;;;;;3.58;1.52;;;4.60;99.90;;;;;;4962079;28;20106;-91
2023/01/26 07:43:35;;;;;;;1.90;1.30;;;4.60;99.90;;;;;;4960728;28;20160;-91
2023/01/26 07:46:03;;;;;;;3.28;1.55;;;4.60;99.90;;;;;;4950142;28;20062;-89
2023/01/26 07:48:30;;;;;;;6.10;1.90;;;4.60;99.90;;;;;;4952506;28;20055;-91
2023/01/26 07:50:58;;;;;;;4.50;1.60;;;4.60;99.90;;;;;;4945456;29;20527;-91
2023/01/26 07:53:28;;;;;;;2.50;1.42;;;4.60;99.90;;;;;;4950838;29;20051;-91
2023/01/26 07:56:08;;;;;;;2.47;1.65;;;4.70;99.90;;;;;;4943729;28;20119;-91
2023/01/26 07:58:35;;;;;;;8.30;2.65;;;4.70;99.90;;;;;;4961092;28;20130;-92
2023/01/26 08:01:10;;;;;;;5.50;2.10;;;4.70;99.90;;;;;;4962324;28;20063;-92
2023/01/26 08:03:37;;;;;;;5.20;1.73;;;4.70;99.90;;;;;;4948692;29;20083;-92
2023/01/26 08:06:04;;;;;;;3.45;1.75;;;4.70;99.90;;;;;;4965768;28;20145;-91
2023/01/26 08:08:31;;;;;;;3.28;1.83;;;4.70;99.90;;;;;;4980821;28;20102;-92
2023/01/26 08:10:59;;;;;;;2.45;1.20;;;4.80;99.90;;;;;;4979498;28;20110;-91
2023/01/26 08:13:27;;;;;;;4.28;1.50;;;4.80;99.90;;;;;;4962681;28;20118;-90
2023/01/26 08:16:08;;;;;;;1.98;1.48;;;4.80;99.90;;;;;;4977918;28;20113;-91
2023/01/26 08:18:35;;;;;;;4.18;1.80;;;4.80;99.90;;;;;;4962704;28;20491;-91
2023/01/26 08:21:02;;;;;;;2.97;1.42;;;4.80;99.90;;;;;;4947840;28;20054;-91
2023/01/26 08:23:29;;;;;;;5.43;1.88;;;4.80;99.90;;;;;;4964303;28;20531;-92
2023/01/26 08:26:07;;;;;;;5.28;2.17;;;4.90;99.90;;;;;;4948030;29;20114;-92
2023/01/26 08:28:33;;;;;;;2.33;1.42;;;5.00;99.90;;;;;;4931856;29;20050;-89
2023/01/26 08:31:10;;;;;;;4.45;2.13;;;5.00;99.90;;;;;;4948892;29;20546;-89
2023/01/26 08:33:37;;;;;;;4.57;2.03;;;5.10;99.90;;;;;;4946472;29;20059;-88
2023/01/26 08:36:05;;;;;;;4.75;1.92;;;5.00;99.90;;;;;;4945979;29;20081;-89
2023/01/26 08:38:33;;;;;;;3.70;1.85;;;5.10;99.90;;;;;;4930346;29;20051;-89
2023/01/26 08:41:00;;;;;;;4.00;2.33;;;5.00;99.90;;;;;;4929767;29;20481;-88
2023/01/26 08:43:27;;;;;;;4.78;1.88;;;5.00;99.90;;;;;;4945229;29;20051;-89
2023/01/26 08:45:54;;;;;;;2.00;1.10;;;5.10;99.90;;;;;;4947187;28;20138;-88
2023/01/26 08:48:20;;;;;;;4.82;1.80;;;5.10;99.90;;;;;;4941186;28;20051;-88
2023/01/26 08:50:47;;;;;;;2.35;1.50;;;5.10;99.90;;;;;;4967229;28;20070;-88
2023/01/26 08:53:14;;;;;;;2.72;1.55;;;5.10;99.90;;;;;;4977599;28;20087;-89
2023/01/26 08:55:41;;;;;;;4.82;2.38;;;5.20;99.90;;;;;;4944873;29;20090;-88
2023/01/26 08:58:08;;;;;;;5.30;2.20;;;5.10;99.90;;;;;;4945283;29;20102;-88
2023/01/26 09:00:35;;;;;;;4.72;2.17;;;5.10;99.90;;;;;;4945075;29;20506;-88
2023/01/26 09:03:03;;;;;;;3.15;1.70;;;5.10;99.90;;;;;;4962152;28;20115;-88
2023/01/26 09:05:31;;;;;;;4.88;1.90;;;5.20;99.90;;;;;;4913984;29;20051;-89
2023/01/26 09:07:58;;;;;;;4.85;2.15;;;5.20;99.90;;;;;;4929027;29;20142;-89
2023/01/26 09:10:25;;;;;;;3.47;2.05;;;5.20;99.90;;;;;;4946563;29;20054;-88
2023/01/26 09:12:51;;;;;;;5.28;2.20;;;5.20;99.90;;;;;;4945421;29;20105;-87
2023/01/26 09:15:18;;;;;;;4.50;2.28;;;5.20;99.90;;;;;;4977559;28;20063;-87
2023/01/26 09:17:49;;;;;;;3.60;1.80;;;5.30;99.90;;;;;;4976437;28;20098;-88
2023/01/26 09:20:16;;;;;;;3.30;1.58;;;5.30;99.90;;;;;;4972083;28;20043;-78
2023/01/26 09:22:43;;;;;;;2.20;1.55;;;5.40;99.90;;;;;;4938026;28;20062;-87
2023/01/26 09:25:10;;;;;;;4.13;2.00;;;5.40;99.90;;;;;;4947282;28;20227;-81
2023/01/26 09:27:37;;;;;;;4.28;2.20;;;5.50;99.90;;;;;;4963851;28;20035;-80
2023/01/26 09:30:05;;;;;;;4.88;2.50;;;5.50;99.90;;;;;;4935148;28;20567;-81
2023/01/26 09:32:32;;;;;;;5.10;3.20;;;5.50;99.90;;;;;;4952130;28;20333;-81
2023/01/26 09:34:59;;;;;;;6.70;3.55;;;5.50;99.90;;;;;;4939687;29;20053;-81
2023/01/26 09:37:26;;;;;;;5.40;2.17;;;5.50;99.90;;;;;;4972563;28;20386;-82
2023/01/26 09:39:53;;;;;;;6.70;2.42;;;5.50;99.90;;;;;;4972467;28;20135;-81
2023/01/26 09:42:29;;;;;;;3.00;1.90;;;5.50;99.90;;;;;;4936887;29;20051;-81
2023/01/26 09:45:09;;;;;;;6.10;2.13;;;5.60;99.90;;;;;;4941176;29;20047;-81
2023/01/26 09:48:10;;;;;;;6.07;2.15;;;5.60;99.90;;;;;;4967983;28;20147;-84
2023/01/26 09:50:45;;;;;;;4.63;2.13;;;5.50;99.90;;;;;;4945124;28;20465;-90
2023/01/26 09:53:49;;;;;;;5.75;3.05;;;5.60;99.90;;;;;;4964701;28;20074;-90
2023/01/26 09:56:18;;;;;;;7.13;3.03;;;5.50;99.90;;;;;;4965694;28;20058;-90
2023/01/26 09:59:17;;;;;;;6.20;2.95;;;5.40;99.90;;;;;;4949009;29;20770;-93
2023/01/26 10:02:15;;;;;;;4.82;2.53;;;5.50;99.90;;;;;;4950282;29;20150;-90
2023/01/26 10:04:44;;;;;;;4.43;2.40;;;5.50;99.90;;;;;;4945940;28;20542;-88
2023/01/26 10:07:11;;;;;;;3.85;2.35;;;5.60;99.90;;;;;;4933000;29;20210;-91
2023/01/26 10:09:39;;;;;;;4.00;1.90;;;5.60;99.90;;;;;;4933978;29;20091;-90
2023/01/26 10:12:34;;;;;;;4.72;2.40;;;5.60;99.90;;;;;;4949115;29;20158;-90
2023/01/26 10:15:25;;;;;;;3.78;2.53;;;5.60;99.90;;;;;;4936253;29;20059;-88
2023/01/26 10:17:53;;;;;;;5.03;2.58;;;5.70;99.90;;;;;;4950155;29;20101;-90
2023/01/26 10:20:34;;;;;;;3.78;2.35;;;5.70;99.90;;;;;;4950416;29;20114;-91
2023/01/26 10:23:27;;;;;;;4.20;2.63;;;5.70;99.90;;;;;;4951354;28;20086;-93
2023/01/26 10:26:16;;;;;;;4.30;2.50;;;5.80;99.90;;;;;;4970870;28;20138;-89
2023/01/26 10:28:44;;;;;;;4.05;2.38;;;5.80;99.90;;;;;;4975219;28;20081;-91
2023/01/26 10:31:22;;;;;;;4.00;2.15;;;5.90;99.90;;;;;;4948916;29;20134;-92
2023/01/26 10:33:53;;;;;;;5.93;2.55;;;5.90;99.90;;;;;;4980373;28;20062;-90
2023/01/26 10:36:20;;;;;;;4.13;2.47;;;5.90;99.90;;;;;;4963974;28;20063;-88
2023/01/26 10:38:48;;;;;;;4.30;2.78;;;6.00;99.90;;;;;;4919875;29;20718;-89
2023/01/26 10:41:17;;;;;;;4.75;3.25;;;6.10;99.90;;;;;;4960928;28;20048;-91
2023/01/26 10:43:50;;;;;;;5.88;3.05;;;6.10;99.90;;;;;;4977379;28;20138;-89
2023/01/26 10:46:34;;;;;;;5.53;3.03;;;6.20;99.90;;;;;;4949354;28;20073;-91
2023/01/26 10:49:15;;;;;;;6.57;2.83;;;6.20;99.90;;;;;;4978955;28;20055;-90
2023/01/26 10:51:44;;;;;;;5.07;3.42;;;6.20;99.90;;;;;;4962066;28;20073;-89
2023/01/26 10:54:13;;;;;;;4.97;2.40;;;6.20;99.90;;;;;;4964286;28;20047;-89
2023/01/26 10:57:01;;;;;;;3.50;2.10;;;6.20;99.90;;;;;;4958078;28;20150;-89
2023/01/26 10:59:31;;;;;;;3.58;2.97;;;6.10;99.90;;;;;;4988179;28;20217;-89
2023/01/26 11:01:59;;;;;;;4.60;3.20;;;6.10;99.90;;;;;;4965413;28;20077;-88
2023/01/26 11:04:26;;;;;;;4.50;3.35;;;6.10;99.90;;;;;;4964343;28;20062;-89
2023/01/26 11:06:53;;;;;;;4.35;3.10;;;6.10;99.90;;;;;;4962700;28;20066;-88
2023/01/26 11:09:27;;;;;;;5.28;2.85;;;6.10;99.90;;;;;;4948449;29;20437;-91
2023/01/26 11:11:59;;;;;;;3.70;2.50;;;6.10;99.90;;;;;;4963532;28;20051;-89
2023/01/26 11:14:27;;;;;;;5.82;2.80;;;6.10;99.90;;;;;;4946209;28;20058;-89
2023/01/26 11:17:18;;;;;;;5.75;2.72;;;6.10;99.90;;;;;;4948295;29;20418;-90
2023/01/26 11:19:55;;;;;;;4.05;2.80;;;6.10;99.90;;;;;;4917735;28;20158;-88
2023/01/26 11:23:18;;;;;;;3.45;2.60;;;6.20;99.90;;;;;;4975967;28;20086;-91
2023/01/26 11:26:09;;;;;;;6.95;3.97;;;6.20;99.90;;;;;;4961270;28;20048;-91
2023/01/26 11:29:01;;;;;;;2.42;1.80;;;6.20;99.90;;;;;;4934224;28;20479;-88
2023/01/26 11:31:53;;;;;;;3.20;2.03;;;6.20;99.90;;;;;;4959150;28;20051;-89
2023/01/26 11:34:23;;;;;;;3.35;1.77;;;6.30;99.90;;;;;;4947423;29;20065;-91
2023/01/26 11:36:54;;;;;;;2.03;1.50;;;6.30;99.90;;;;;;4946530;29;20047;-89
2023/01/26 11:39:34;;;;;;;2.80;1.60;;;6.40;99.90;;;;;;4941858;28;20498;-91
2023/01/26 11:42:11;;;;;;;3.53;1.48;;;6.30;99.90;;;;;;4935530;29;20087;-91
2023/01/26 11:45:03;;;;;;;2.30;1.60;;;6.40;99.90;;;;;;4978974;28;20386;-89
2023/01/26 11:47:45;;;;;;;2.58;1.67;;;6.40;99.90;;;;;;4978537;28;20127;-92
2023/01/26 11:51:01;;;;;;;3.97;1.95;;;6.50;99.90;;;;;;4946819;29;20109;-88
2023/01/26 11:53:38;;;;;;;3.55;1.80;;;6.60;99.90;;;;;;4943680;28;20058;-89
2023/01/26 11:56:26;;;;;;;4.57;2.03;;;6.60;99.90;;;;;;4944628;28;20065;-92
2023/01/26 11:58:57;;;;;;;3.17;1.92;;;6.50;99.90;;;;;;4960743;28;20090;-90
2023/01/26 12:01:38;;;;;;;6.57;1.98;;;6.60;99.90;;;;;;4954321;28;20056;-89
2023/01/26 12:04:05;;;;;;;3.00;1.65;;;6.70;99.90;;;;;;4957565;28;20047;-86
2023/01/26 12:06:42;;;;;;;5.15;1.80;;;6.70;99.90;;;;;;4959605;28;20114;-89
2023/01/26 12:09:32;;;;;;;3.22;1.58;;;6.80;99.90;;;;;;4958364;28;20404;-91
2023/01/26 12:12:09;;;;;;;3.40;1.48;;;6.70;99.90;;;;;;4958445;28;20604;-90
2023/01/26 12:14:37;;;;;;;4.72;1.85;;;6.80;99.90;;;;;;4947376;29;20462;-93
2023/01/26 12:17:04;;;;;;;4.40;1.70;;;6.80;99.90;;;;;;4960258;28;20170;-93
2023/01/26 12:20:22;;;;;;;5.50;2.17;;;6.80;99.90;;;;;;4946247;29;20632;-91
2023/01/26 12:23:17;;;;;;;4.32;1.67;;;6.80;99.90;;;;;;4936261;29;20058;-92
2023/01/26 12:25:49;;;;;;;3.33;1.60;;;6.90;99.90;;;;;;4915984;29;20055;-92
2023/01/26 12:28:44;;;;;;;4.70;1.80;;;6.80;99.90;;;;;;4944128;29;20091;-93
2023/01/26 12:31:22;;;;;;;5.63;1.90;;;6.80;99.90;;;;;;4982359;28;20055;-92
2023/01/26 12:33:52;;;;;;;5.30;1.73;;;7.00;99.90;;;;;;4981822;28;20375;-93
2023/01/26 12:36:31;;;;;;;4.15;1.80;;;7.10;99.90;;;;;;4913454;29;20055;-94
2023/01/26 12:39:25;;;;;;;4.03;1.58;;;7.10;99.90;;;;;;4981461;28;20055;-89
2023/01/26 12:42:09;;;;;;;3.50;1.75;;;7.20;99.90;;;;;;4938691;29;20066;-93
2023/01/26 12:44:45;;;;;;;4.60;2.00;;;7.20;99.90;;;;;;4941942;29;20043;-93
2023/01/26 12:47:14;;;;;;;5.10;1.83;;;7.30;99.90;;;;;;4985404;28;20110;-94
2023/01/26 12:50:05;;;;;;;5.63;1.73;;;7.30;99.90;;;;;;4959709;28;20105;-93
2023/01/26 12:52:43;;;;;;;4.32;1.55;;;7.50;99.90;;;;;;4959992;28;20047;-96
2023/01/26 12:55:23;;;;;;;4.78;1.95;;;7.50;99.90;;;;;;4997048;28;20043;-95
2023/01/26 12:58:00;;;;;;;7.75;2.50;;;7.50;99.90;;;;;;4987036;28;20106;-94
2023/01/26 13:00:31;;;;;;;6.53;2.03;;;7.50;99.90;;;;;;4972493;28;20059;-94
2023/01/26 13:03:19;;;;;;;4.90;2.10;;;7.70;99.90;;;;;;4978532;28;20070;-96
2023/01/26 13:05:57;;;;;;;5.43;2.08;;;7.70;99.90;;;;;;4990756;28;20051;-96
2023/01/26 13:08:30;;;;;;;4.72;1.70;;;7.70;99.90;;;;;;4980303;28;20062;-94
2023/01/26 13:11:00;;;;;;;9.55;1.95;;;7.70;99.90;;;;;;4959809;28;20047;-95
2023/01/26 13:13:47;;;;;;;7.65;2.42;;;7.80;99.90;;;;;;4990348;28;20062;-94
2023/01/26 13:16:14;;;;;;;5.65;2.10;;;7.90;99.90;;;;;;4981411;28;20055;-93
2023/01/26 13:18:48;;;;;;;4.05;1.98;;;7.90;99.90;;;;;;4985092;28;20082;-95
2023/01/26 13:21:41;;;;;;;5.20;1.70;;;8.00;99.90;;;;;;4982028;28;20369;-94
2023/01/26 13:24:17;;;;;;;5.95;1.90;;;8.10;99.90;;;;;;4960750;28;20087;-91
2023/01/26 13:27:10;;;;;;;4.32;1.52;;;8.20;99.90;;;;;;4953936;28;20062;-93
2023/01/26 13:29:52;;;;;;;8.15;2.70;;;8.20;99.90;;;;;;4947595;28;20047;-93
2023/01/26 13:32:19;;;;;;;5.93;2.03;;;8.20;99.90;;;;;;4990151;28;20051;-92
2023/01/26 13:34:53;;;;;;;3.90;1.60;;;8.00;99.90;;;;;;4956177;29;20315;-95
2023/01/26 13:37:49;;;;;;;5.53;2.10;;;7.90;99.90;;;;;;4983964;28;20051;-95
2023/01/26 13:40:19;;;;;;;5.43;1.73;;;7.90;99.90;;;;;;4966005;28;20051;-94
2023/01/26 13:42:59;;;;;;;4.65;1.65;;;7.90;99.90;;;;;;4947868;28;20400;-89
2023/01/26 13:45:38;;;;;;;6.63;2.42;;;7.90;99.90;;;;;;4942679;28;20044;-90
2023/01/26 13:48:16;;;;;;;6.53;1.80;;;7.90;99.90;;;;;;4946294;28;20070;-90
2023/01/26 13:50:43;;;;;;;6.20;2.20;;;8.00;99.90;;;;;;4975588;28;20144;-91
2023/01/26 13:53:36;;;;;;;3.78;1.52;;;8.00;99.90;;;;;;4945774;28;20089;-90
2023/01/26 13:56:04;;;;;;;4.95;1.80;;;8.10;99.90;;;;;;4946508;29;20086;-90
2023/01/26 13:58:31;;;;;;;7.80;1.98;;;8.00;99.90;;;;;;4961826;28;20075;-91
2023/01/26 14:00:59;;;;;;;8.45;2.47;;;7.90;99.90;;;;;;4963284;28;20086;-90
2023/01/26 14:03:26;;;;;;;6.55;1.88;;;7.80;99.90;;;;;;4946470;29;20055;-89
2023/01/26 14:05:55;;;;;;;7.90;2.40;;;7.80;99.90;;;;;;4946361;29;20138;-90
2023/01/26 14:08:22;;;;;;;3.92;1.58;;;7.70;99.90;;;;;;4946831;29;20059;-92
2023/01/26 14:10:50;;;;;;;7.63;1.70;;;7.70;99.90;;;;;;4979049;28;20082;-92
2023/01/26 14:13:23;;;;;;;4.40;1.38;;;7.70;99.90;;;;;;4961540;28;20062;-93